Time;durP1;ratioP1;P1;durP2;ratioP2;P2;SDS_P1;SDS_P2;PMS_P1;PMS_P2;Temp;Humidity;BMP_temperature;BMP_pressure;BME280_temperature;BME280_humidity;BME280_pressure;Samples;Min_cycle;Max_cycle;Signal;HPM_P1;HPM_P2
2020/12/27 00:00:42;;;;;;;4.63;2.10;;;;;;;4.26;100.00;99736.72;5006293;28;20398;-66
2020/12/27 00:03:07;;;;;;;6.77;3.00;;;;;;;4.23;100.00;99723.75;5001336;28;20030;-66
2020/12/27 00:05:34;;;;;;;3.83;2.20;;;;;;;4.30;100.00;99702.25;5005981;28;20030;-66
2020/12/27 00:07:59;;;;;;;3.90;2.13;;;;;;;4.29;100.00;99708.28;5005581;28;20033;-66
2020/12/27 00:10:25;;;;;;;4.97;2.53;;;;;;;4.26;100.00;99698.78;4992849;28;20277;-66
2020/12/27 00:12:50;;;;;;;5.50;3.03;;;;;;;4.27;100.00;99694.47;5005514;28;20017;-66
2020/12/27 00:15:16;;;;;;;3.67;1.90;;;;;;;4.28;100.00;99685.88;4997477;28;20030;-66
2020/12/27 00:17:43;;;;;;;5.23;2.37;;;;;;;4.21;100.00;99678.88;5002476;28;20026;-66
2020/12/27 00:20:09;;;;;;;4.47;2.13;;;;;;;4.25;100.00;99681.53;5005501;28;20029;-66
2020/12/27 00:22:34;;;;;;;5.50;2.43;;;;;;;4.25;100.00;99666.00;5005338;28;20855;-66
2020/12/27 00:24:59;;;;;;;5.27;2.33;;;;;;;4.26;100.00;99674.63;5000200;28;20401;-66
2020/12/27 00:27:25;;;;;;;4.87;1.83;;;;;;;4.29;100.00;99670.34;5004145;28;20116;-66
2020/12/27 00:29:50;;;;;;;3.60;1.43;;;;;;;4.33;100.00;99642.78;5005836;28;20030;-66
2020/12/27 00:32:16;;;;;;;4.60;2.17;;;;;;;4.29;100.00;99654.81;5004642;28;20034;-65
2020/12/27 00:34:41;;;;;;;4.07;2.03;;;;;;;4.37;100.00;99652.31;5003053;28;20037;-66
2020/12/27 00:37:06;;;;;;;5.17;2.30;;;;;;;4.32;100.00;99643.63;5004998;28;20032;-66
2020/12/27 00:39:32;;;;;;;3.07;1.63;;;;;;;4.38;100.00;99633.34;5002528;28;20081;-66
2020/12/27 00:41:59;;;;;;;5.67;2.67;;;;;;;4.29;100.00;99630.66;4997978;28;20030;-67
2020/12/27 00:44:25;;;;;;;4.70;2.43;;;;;;;4.32;100.00;99622.94;5000183;28;20026;-66
2020/12/27 00:46:50;;;;;;;4.43;2.17;;;;;;;4.28;100.00;99614.28;5000805;28;20367;-66
2020/12/27 00:49:17;;;;;;;2.60;1.53;;;;;;;4.31;100.00;99609.13;5002637;28;20063;-66
2020/12/27 00:51:42;;;;;;;2.93;1.53;;;;;;;4.31;100.00;99605.66;5003731;28;20041;-66
2020/12/27 00:54:07;;;;;;;3.87;1.97;;;;;;;4.30;100.00;99562.53;5005790;28;20663;-66
2020/12/27 00:56:33;;;;;;;3.43;1.40;;;;;;;4.29;100.00;99595.31;5003437;28;20026;-65
2020/12/27 00:58:58;;;;;;;4.77;2.60;;;;;;;4.24;100.00;99580.59;5001313;28;20038;-67
2020/12/27 01:01:24;;;;;;;3.47;2.07;;;;;;;4.29;100.00;99574.59;5003303;28;20038;-65
2020/12/27 01:03:50;;;;;;;3.47;1.77;;;;;;;4.27;100.00;99570.28;5002356;28;20034;-66
2020/12/27 01:06:21;;;;;;;4.07;1.63;;;;;;;4.34;100.00;99566.88;5003150;28;20038;-66
2020/12/27 01:08:47;;;;;;;3.10;1.35;;;;;;;4.30;100.00;99550.47;5001671;28;20037;-66
2020/12/27 01:11:12;;;;;;;3.03;1.50;;;;;;;4.28;100.00;99540.97;5006048;28;20417;-66
2020/12/27 01:13:39;;;;;;;3.27;1.60;;;;;;;4.21;100.00;99534.00;4999559;28;20026;-66
2020/12/27 01:16:11;;;;;;;3.10;1.27;;;;;;;4.21;100.00;99518.47;5000873;28;20525;-66
2020/12/27 01:18:39;;;;;;;2.10;1.20;;;;;;;4.18;100.00;99508.09;5002466;28;20289;-66
2020/12/27 01:21:04;;;;;;;5.30;2.10;;;;;;;4.13;100.00;99504.63;5005814;28;20042;-66
2020/12/27 01:23:29;;;;;;;4.53;1.87;;;;;;;4.00;100.00;99499.38;5005501;28;20292;-66
2020/12/27 01:25:55;;;;;;;4.33;1.77;;;;;;;3.95;100.00;99489.81;5003958;28;20504;-67
2020/12/27 01:28:20;;;;;;;1.70;1.03;;;;;;;3.87;100.00;99486.28;4999973;28;20030;-66
2020/12/27 01:30:46;;;;;;;5.17;1.80;;;;;;;3.87;100.00;99483.69;4998645;28;20034;-66
2020/12/27 01:33:11;;;;;;;3.40;1.70;;;;;;;3.90;100.00;99484.63;5003511;28;20105;-66
2020/12/27 01:35:36;;;;;;;2.97;1.40;;;;;;;3.83;100.00;99481.09;5002350;28;20030;-66
2020/12/27 01:38:02;;;;;;;4.47;1.90;;;;;;;3.84;100.00;99450.94;5001979;28;20036;-66
2020/12/27 01:40:27;;;;;;;2.37;1.17;;;;;;;3.88;100.00;99447.53;4998331;28;20029;-66
2020/12/27 01:42:57;;;;;;;3.20;1.50;;;;;;;3.80;100.00;99418.16;5000550;28;20371;-66
2020/12/27 01:45:24;;;;;;;3.53;1.50;;;;;;;3.81;100.00;99436.28;5004319;28;20108;-67
2020/12/27 01:47:51;;;;;;;2.97;1.20;;;;;;;3.81;100.00;99425.06;4999492;28;20292;-66
2020/12/27 01:50:17;;;;;;;5.47;1.60;;;;;;;3.71;100.00;99402.56;5001449;28;20307;-66
2020/12/27 01:52:43;;;;;;;2.20;1.37;;;;;;;3.69;100.00;99404.28;5004650;28;20281;-66
2020/12/27 01:55:11;;;;;;;3.97;1.97;;;;;;;3.66;100.00;99401.69;5004305;28;20288;-66
2020/12/27 01:57:43;;;;;;;5.30;1.73;;;;;;;3.61;100.00;99399.03;4998641;28;20078;-66
2020/12/27 02:00:08;;;;;;;4.53;1.67;;;;;;;3.65;100.00;99389.63;4983383;28;20281;-66
2020/12/27 02:02:34;;;;;;;2.80;1.60;;;;;;;3.62;100.00;99386.97;5001636;28;20285;-66
2020/12/27 02:04:59;;;;;;;3.00;1.50;;;;;;;3.68;100.00;99371.53;5000303;28;20445;-66
2020/12/27 02:07:28;;;;;;;3.00;1.60;;;;;;;3.68;100.00;99350.88;5001463;28;20033;-66
2020/12/27 02:09:57;;;;;;;3.27;1.60;;;;;;;3.66;100.00;99365.50;4999659;28;20026;-66
2020/12/27 02:12:25;;;;;;;3.00;1.63;;;;;;;3.69;100.00;99363.78;5002382;28;20289;-66
2020/12/27 02:14:52;;;;;;;2.67;1.27;;;;;;;3.78;100.00;99350.09;4999780;28;20622;-66
2020/12/27 02:17:17;;;;;;;3.03;1.37;;;;;;;3.79;100.00;99352.66;5001822;28;20633;-66
2020/12/27 02:19:43;;;;;;;2.60;1.37;;;;;;;3.83;100.00;99350.97;5004372;28;20287;-66
2020/12/27 02:22:08;;;;;;;2.97;1.50;;;;;;;3.87;100.00;99342.34;4997585;28;20443;-66
2020/12/27 02:24:34;;;;;;;2.33;1.20;;;;;;;3.90;100.00;99350.16;4999483;28;20056;-65
2020/12/27 02:27:01;;;;;;;2.60;1.30;;;;;;;3.90;100.00;99346.72;5001628;28;20390;-65
2020/12/27 02:29:28;;;;;;;6.17;2.33;;;;;;;3.88;100.00;99327.72;5003259;28;20022;-65
2020/12/27 02:31:54;;;;;;;2.97;1.30;;;;;;;3.90;100.00;99337.22;4998968;28;20277;-66
2020/12/27 02:34:20;;;;;;;3.20;1.50;;;;;;;3.89;100.00;99307.06;5003990;28;20281;-66
2020/12/27 02:36:46;;;;;;;2.93;1.47;;;;;;;3.88;100.00;99307.91;5000099;28;20041;-65
2020/12/27 02:39:13;;;;;;;4.50;1.40;;;;;;;3.75;100.00;99270.75;4999986;28;20289;-66
2020/12/27 02:41:40;;;;;;;3.10;1.27;;;;;;;3.69;100.00;99286.25;4997074;28;20296;-66
2020/12/27 02:44:06;;;;;;;2.20;1.07;;;;;;;3.77;100.00;99288.91;4998668;28;20281;-66
2020/12/27 02:46:32;;;;;;;1.73;0.90;;;;;;;3.74;100.00;99268.16;5000476;28;20350;-65
2020/12/27 02:48:58;;;;;;;2.73;1.30;;;;;;;3.62;100.00;99255.19;5002913;28;20293;-66
2020/12/27 02:51:24;;;;;;;3.00;1.27;;;;;;;3.71;100.00;99250.06;5000058;28;20041;-65
2020/12/27 02:53:51;;;;;;;2.87;1.43;;;;;;;3.75;100.00;99234.56;4999844;28;20038;-65
2020/12/27 02:56:23;;;;;;;3.50;1.50;;;;;;;3.70;100.00;99240.59;5002018;28;20281;-66
2020/12/27 02:58:50;;;;;;;1.53;0.90;;;;;;;3.65;100.00;99203.53;5002097;28;20296;-66
2020/12/27 03:01:16;;;;;;;2.73;1.57;;;;;;;3.63;100.00;99213.84;5000179;28;20776;-66
2020/12/27 03:03:42;;;;;;;3.70;1.50;;;;;;;3.62;100.00;99206.06;5000205;28;20292;-66
2020/12/27 03:06:08;;;;;;;2.17;1.07;;;;;;;3.69;100.00;99194.94;5003704;28;20335;-66
2020/12/27 03:08:33;;;;;;;1.97;1.10;;;;;;;3.66;100.00;99197.50;5002576;28;20282;-66
2020/12/27 03:10:59;;;;;;;2.63;1.20;;;;;;;3.68;100.00;99186.31;5000556;28;20103;-66
2020/12/27 03:13:24;;;;;;;3.50;1.40;;;;;;;3.63;100.00;99194.88;5002848;28;20061;-65
2020/12/27 03:15:54;;;;;;;3.27;1.10;;;;;;;3.58;100.00;99188.84;5004193;28;20034;-65
2020/12/27 03:18:22;;;;;;;1.97;1.13;;;;;;;3.75;100.00;99182.00;5001807;28;20041;-66
2020/12/27 03:20:49;;;;;;;3.17;1.40;;;;;;;3.63;100.00;99177.66;4999789;28;20376;-65
2020/12/27 03:23:15;;;;;;;4.07;1.40;;;;;;;3.58;100.00;99181.09;5000271;28;20643;-66
2020/12/27 03:25:41;;;;;;;4.20;1.33;;;;;;;3.61;100.00;99166.44;4997130;28;20274;-66
2020/12/27 03:28:06;;;;;;;3.63;1.20;;;;;;;3.61;100.00;99157.84;4996856;28;20280;-66
2020/12/27 03:30:32;;;;;;;2.10;1.10;;;;;;;3.61;100.00;99153.53;4998605;28;20780;-66
2020/12/27 03:32:57;;;;;;;1.60;0.97;;;;;;;3.48;100.00;99134.53;4998148;28;20026;-66
2020/12/27 03:35:23;;;;;;;2.37;1.10;;;;;;;3.47;100.00;99137.97;4999132;28;20113;-66
2020/12/27 03:37:48;;;;;;;3.47;1.40;;;;;;;3.45;100.00;99137.09;5004084;28;20037;-66
2020/12/27 03:40:14;;;;;;;3.37;1.43;;;;;;;3.48;100.00;99137.09;5000222;28;20041;-65
2020/12/27 03:42:39;;;;;;;2.30;0.97;;;;;;;3.59;100.00;99128.53;5001173;28;20034;-66
2020/12/27 03:45:05;;;;;;;2.37;1.00;;;;;;;3.60;100.00;99117.34;4997376;28;20111;-66
2020/12/27 03:47:31;;;;;;;2.53;1.10;;;;;;;3.51;100.00;99111.31;5000911;28;20033;-66
2020/12/27 03:49:56;;;;;;;2.87;1.30;;;;;;;3.45;100.00;99115.56;4996767;28;20026;-65
2020/12/27 03:52:22;;;;;;;2.10;0.90;;;;;;;3.53;100.00;99083.75;4998560;28;20512;-66
2020/12/27 03:54:47;;;;;;;2.20;1.10;;;;;;;3.52;100.00;99087.19;4998370;28;20034;-66
2020/12/27 03:57:12;;;;;;;3.20;1.20;;;;;;;3.54;100.00;99082.03;4999222;28;20036;-66
2020/12/27 03:59:38;;;;;;;2.23;1.17;;;;;;;3.63;100.00;99068.25;4996282;28;20501;-66
2020/12/27 04:02:03;;;;;;;1.90;1.00;;;;;;;3.60;100.00;99048.44;4996424;28;20270;-65
2020/12/27 04:04:29;;;;;;;1.77;0.93;;;;;;;3.54;100.00;99053.59;4998331;28;20104;-65
2020/12/27 04:06:54;;;;;;;5.87;1.13;;;;;;;3.56;100.00;99040.69;4998694;28;20026;-66
2020/12/27 04:09:19;;;;;;;2.53;1.20;;;;;;;3.61;100.00;99028.63;5000505;28;20113;-65
2020/12/27 04:11:45;;;;;;;2.90;1.40;;;;;;;3.56;100.00;99007.09;4997723;28;20069;-66
2020/12/27 04:14:10;;;;;;;2.80;1.33;;;;;;;3.60;100.00;99001.91;4997817;28;20026;-66
2020/12/27 04:16:36;;;;;;;2.10;1.00;;;;;;;3.55;100.00;98957.13;4998155;28;20034;-65
2020/12/27 04:19:01;;;;;;;2.20;1.20;;;;;;;3.53;100.00;98985.56;4998538;28;20104;-66
2020/12/27 04:21:27;;;;;;;4.03;1.23;;;;;;;3.59;100.00;98971.78;5000273;28;20113;-66
2020/12/27 04:23:52;;;;;;;2.17;1.13;;;;;;;3.56;100.00;98958.00;5002674;28;20070;-65
2020/12/27 04:26:17;;;;;;;2.13;1.33;;;;;;;3.58;100.00;98927.84;5001298;28;20054;-66
2020/12/27 04:28:43;;;;;;;1.63;0.83;;;;;;;3.59;100.00;98937.31;5003923;28;20030;-65
2020/12/27 04:31:14;;;;;;;2.50;1.00;;;;;;;3.57;100.00;98939.03;4999679;28;20034;-65
2020/12/27 04:33:40;;;;;;;2.10;1.00;;;;;;;3.60;100.00;98924.41;4999012;28;20336;-65
2020/12/27 04:36:06;;;;;;;1.40;0.73;;;;;;;3.67;100.00;98915.78;5004876;28;20308;-65
2020/12/27 04:38:31;;;;;;;2.03;0.93;;;;;;;3.66;100.00;98897.72;5005005;28;20291;-66
2020/12/27 04:40:58;;;;;;;3.80;1.30;;;;;;;3.70;100.00;98879.59;5000800;28;20288;-66
2020/12/27 04:43:24;;;;;;;2.47;1.10;;;;;;;3.66;100.00;98867.56;5006793;28;20030;-65
2020/12/27 04:45:53;;;;;;;2.43;1.20;;;;;;;3.79;100.00;98876.16;5003802;28;20807;-66
2020/12/27 04:48:20;;;;;;;1.93;0.90;;;;;;;3.77;100.00;98875.31;5002255;28;20030;-65
2020/12/27 04:50:45;;;;;;;0.83;0.57;;;;;;;3.83;100.00;98862.34;5001706;28;20316;-65
2020/12/27 04:53:12;;;;;;;2.60;1.30;;;;;;;3.82;100.00;98837.38;5002775;28;20320;-66
2020/12/27 04:55:38;;;;;;;0.70;0.60;;;;;;;3.85;100.00;98858.03;5000389;28;20038;-65
2020/12/27 04:58:08;;;;;;;2.33;1.30;;;;;;;3.89;100.00;98857.19;5004177;28;20637;-66
2020/12/27 05:00:33;;;;;;;1.00;0.57;;;;;;;3.99;100.00;98840.78;5004363;28;20756;-65
2020/12/27 05:03:00;;;;;;;2.47;1.00;;;;;;;3.91;100.00;98821.84;5005045;28;20331;-66
2020/12/27 05:05:25;;;;;;;1.80;1.00;;;;;;;3.96;100.00;98838.19;5004597;28;20477;-65
2020/12/27 05:07:52;;;;;;;1.97;0.70;;;;;;;3.99;100.00;98809.75;5004191;28;20411;-66
2020/12/27 05:10:18;;;;;;;1.90;0.90;;;;;;;4.09;100.00;98823.50;5003980;28;20040;-66
2020/12/27 05:12:43;;;;;;;1.30;0.80;;;;;;;4.03;100.00;98811.47;5001025;28;20276;-65
2020/12/27 05:15:08;;;;;;;0.93;0.70;;;;;;;4.08;100.00;98804.56;5004855;28;20023;-66
2020/12/27 05:17:35;;;;;;;1.47;0.63;;;;;;;4.20;100.00;98792.44;5001010;28;20034;-66
2020/12/27 05:20:12;;;;;;;0.83;0.53;;;;;;;4.22;100.00;98786.41;5012271;28;20532;-66
2020/12/27 05:22:39;;;;;;;1.23;0.60;;;;;;;4.28;100.00;98772.59;5008952;28;20814;-66
2020/12/27 05:25:05;;;;;;;1.33;0.70;;;;;;;4.35;100.00;98767.34;5010593;28;20352;-66
2020/12/27 05:27:38;;;;;;;0.90;0.60;;;;;;;4.30;100.00;98760.50;5010704;28;20281;-66
2020/12/27 05:30:03;;;;;;;0.93;0.57;;;;;;;4.35;100.00;98741.50;5011314;28;20688;-65
2020/12/27 05:32:30;;;;;;;0.77;0.50;;;;;;;4.33;100.00;98751.00;5009991;28;20292;-66
2020/12/27 05:34:59;;;;;;;1.40;0.70;;;;;;;4.30;100.00;98750.16;5012915;28;20100;-66
2020/12/27 05:37:29;;;;;;;0.50;0.40;;;;;;;4.43;100.00;98738.88;5011472;28;20312;-66
2020/12/27 05:39:54;;;;;;;0.53;0.40;;;;;;;4.48;100.00;98737.09;5005708;28;20355;-66
2020/12/27 05:42:25;;;;;;;1.10;0.70;;;;;;;4.44;100.00;98730.22;5009199;28;20292;-65
2020/12/27 05:44:51;;;;;;;0.80;0.50;;;;;;;4.40;100.00;98738.91;4997572;28;20032;-65
2020/12/27 05:47:17;;;;;;;0.93;0.70;;;;;;;4.44;100.00;98725.06;5009432;28;20307;-65
2020/12/27 05:49:44;;;;;;;0.93;0.80;;;;;;;4.48;100.00;98726.75;5010285;28;20284;-66
2020/12/27 05:52:15;;;;;;;0.83;0.60;;;;;;;4.60;100.00;98731.00;5011184;28;20400;-66
2020/12/27 05:54:46;;;;;;;1.13;0.67;;;;;;;4.51;100.00;98711.22;5010549;28;20771;-65
2020/12/27 05:57:15;;;;;;;0.80;0.50;;;;;;;4.53;100.00;98701.72;5010186;28;20277;-65
2020/12/27 05:59:47;;;;;;;1.80;0.67;;;;;;;4.54;100.00;98700.00;5008503;28;20307;-66
2020/12/27 06:02:42;;;;;;;1.52;0.70;;;;;;;4.67;100.00;98704.22;5011622;28;20289;-66
2020/12/27 06:05:12;;;;;;;1.17;0.70;;;;;;;4.62;100.00;98688.72;5008487;28;20022;-66
2020/12/27 06:07:45;;;;;;;0.80;0.70;;;;;;;4.60;100.00;98669.75;5011114;28;20758;-65
2020/12/27 06:10:29;;;;;;;1.43;0.70;;;;;;;4.60;100.00;98662.00;5012210;28;20280;-66
2020/12/27 06:12:57;;;;;;;1.33;0.70;;;;;;;4.69;100.00;98646.38;5011057;28;20269;-66
2020/12/27 06:15:28;;;;;;;1.13;0.67;;;;;;;4.69;100.00;98630.84;5011748;28;20309;-66
2020/12/27 06:17:54;;;;;;;1.20;0.60;;;;;;;4.69;100.00;98648.97;5009631;28;20319;-65
2020/12/27 06:20:21;;;;;;;1.90;0.67;;;;;;;4.64;100.00;98645.56;5012522;28;20764;-65
2020/12/27 06:22:49;;;;;;;0.97;0.70;;;;;;;4.64;100.00;98627.44;5009889;28;20644;-65
2020/12/27 06:25:16;;;;;;;1.40;0.73;;;;;;;4.60;100.00;98625.78;5010949;28;20719;-65
2020/12/27 06:27:42;;;;;;;1.13;0.83;;;;;;;4.58;100.00;98629.22;5010531;28;20276;-65
2020/12/27 06:30:22;;;;;;;0.90;0.53;;;;;;;4.66;100.00;98597.22;5010225;28;20859;-65
2020/12/27 06:32:53;;;;;;;0.90;0.50;;;;;;;4.54;100.00;98623.22;5010830;28;20014;-65
2020/12/27 06:35:28;;;;;;;1.33;0.70;;;;;;;4.49;100.00;98608.59;5010384;28;20335;-66
2020/12/27 06:37:53;;;;;;;1.27;0.77;;;;;;;4.45;100.00;98602.56;5008351;28;20280;-65
2020/12/27 06:40:19;;;;;;;1.57;0.90;;;;;;;4.54;100.00;98589.56;5010829;28;20775;-65
2020/12/27 06:42:45;;;;;;;1.23;0.70;;;;;;;4.55;100.00;98575.75;5008497;28;20022;-66
2020/12/27 06:45:30;;;;;;;0.73;0.60;;;;;;;4.51;100.00;98563.72;5007589;28;20338;-66
2020/12/27 06:47:57;;;;;;;0.80;0.50;;;;;;;4.54;100.00;98555.94;5004595;28;20022;-65
2020/12/27 06:50:26;;;;;;;1.67;0.70;;;;;;;4.60;100.00;98550.72;5004369;28;20317;-65
2020/12/27 06:52:53;;;;;;;1.10;0.73;;;;;;;4.64;100.00;98554.97;5007289;28;20279;-65
2020/12/27 06:55:38;;;;;;;1.43;0.70;;;;;;;4.72;100.00;98544.53;5007678;28;20276;-65
2020/12/27 06:58:23;;;;;;;0.87;0.50;;;;;;;4.70;100.00;98526.44;5006401;28;20289;-65
2020/12/27 07:01:10;;;;;;;1.27;0.80;;;;;;;4.76;100.00;98503.97;5003831;28;20645;-65
2020/12/27 07:03:35;;;;;;;0.80;0.53;;;;;;;4.67;100.00;98500.59;4989011;28;20678;-65
2020/12/27 07:06:19;;;;;;;0.47;0.40;;;;;;;4.70;100.00;98510.91;5008616;28;20363;-65
2020/12/27 07:08:46;;;;;;;1.07;0.67;;;;;;;4.74;100.00;98505.72;5006479;28;20109;-65
2020/12/27 07:11:17;;;;;;;0.93;0.60;;;;;;;4.75;100.00;98481.53;5009522;28;20292;-66
2020/12/27 07:13:46;;;;;;;0.83;0.60;;;;;;;4.70;100.00;98469.47;5008458;28;20273;-66
2020/12/27 07:16:16;;;;;;;0.63;0.60;;;;;;;4.75;100.00;98476.34;5009707;28;20267;-65
2020/12/27 07:18:48;;;;;;;2.23;0.70;;;;;;;4.80;100.00;98479.75;5008247;28;20683;-65
2020/12/27 07:21:19;;;;;;;0.98;0.57;;;;;;;4.92;100.00;98453.72;5009958;28;20288;-65
2020/12/27 07:24:04;;;;;;;1.37;0.80;;;;;;;4.86;100.00;98464.16;5009458;28;20087;-65
2020/12/27 07:26:50;;;;;;;1.00;0.70;;;;;;;4.85;100.00;98436.56;5006785;28;20302;-66
2020/12/27 07:29:18;;;;;;;1.17;0.70;;;;;;;4.77;100.00;98438.38;5008621;28;20281;-66
2020/12/27 07:31:44;;;;;;;1.07;0.70;;;;;;;4.77;100.00;98417.66;5009568;28;20315;-66
2020/12/27 07:34:12;;;;;;;0.73;0.60;;;;;;;4.85;100.00;98408.06;5010168;28;20311;-67
2020/12/27 07:36:38;;;;;;;0.93;0.60;;;;;;;4.79;100.00;98400.38;5009774;28;20284;-66
2020/12/27 07:39:05;;;;;;;1.00;0.60;;;;;;;4.83;100.00;98402.03;5009031;28;20288;-66
2020/12/27 07:41:31;;;;;;;1.43;0.90;;;;;;;4.82;100.00;98384.78;5003448;28;20025;-66
2020/12/27 07:43:58;;;;;;;1.23;0.80;;;;;;;4.89;100.00;98376.06;5006609;28;20295;-66
2020/12/27 07:46:26;;;;;;;1.23;0.80;;;;;;;4.91;100.00;98389.84;5000893;28;20335;-66
2020/12/27 07:48:52;;;;;;;0.63;0.50;;;;;;;4.96;100.00;98367.31;5008887;28;20319;-66
2020/12/27 07:51:19;;;;;;;1.00;0.60;;;;;;;4.96;100.00;98357.81;5009309;28;20751;-66
2020/12/27 07:53:49;;;;;;;1.77;0.90;;;;;;;4.90;100.00;98351.91;5007582;28;20321;-67
2020/12/27 07:56:16;;;;;;;1.00;0.60;;;;;;;4.91;100.00;98349.28;5008317;28;20316;-66
2020/12/27 07:58:50;;;;;;;0.70;0.57;;;;;;;4.99;100.00;98342.28;5006850;28;20284;-66
2020/12/27 08:01:18;;;;;;;3.63;1.07;;;;;;;4.95;100.00;98344.91;5007773;28;20305;-66
2020/12/27 08:03:44;;;;;;;1.50;0.70;;;;;;;5.01;100.00;98334.47;5006982;28;20367;-66
2020/12/27 08:06:15;;;;;;;0.80;0.50;;;;;;;5.02;100.00;98318.06;5009662;28;20289;-66
2020/12/27 08:08:40;;;;;;;2.20;0.90;;;;;;;4.94;100.00;98309.53;5009155;28;20030;-66
2020/12/27 08:11:25;;;;;;;0.90;0.60;;;;;;;4.95;100.00;98298.28;5004694;28;20371;-66
2020/12/27 08:13:56;;;;;;;0.60;0.50;;;;;;;4.99;100.00;98289.63;5006258;28;20045;-66
2020/12/27 08:16:22;;;;;;;0.57;0.33;;;;;;;5.01;100.00;98274.91;5008079;28;20677;-65
2020/12/27 08:18:47;;;;;;;1.40;0.70;;;;;;;5.04;100.00;98287.81;5007428;28;20331;-66
2020/12/27 08:21:19;;;;;;;1.40;0.60;;;;;;;5.00;100.00;98279.25;5009755;28;20277;-65
2020/12/27 08:24:06;;;;;;;1.47;0.50;;;;;;;5.06;100.00;98243.75;5009333;28;20112;-66
2020/12/27 08:26:34;;;;;;;1.10;0.70;;;;;;;5.03;100.00;98260.19;5008312;28;20305;-66
2020/12/27 08:29:15;;;;;;;0.73;0.60;;;;;;;5.00;100.00;98239.53;5007225;28;20269;-66
2020/12/27 08:31:42;;;;;;;1.20;0.47;;;;;;;5.07;100.00;98230.78;5007125;28;20285;-66
2020/12/27 08:34:22;;;;;;;0.83;0.53;;;;;;;5.05;100.00;98237.72;5005534;28;20338;-66
2020/12/27 08:36:53;;;;;;;1.30;0.67;;;;;;;5.01;100.00;98225.72;5009013;28;20280;-66
2020/12/27 08:39:35;;;;;;;0.73;0.50;;;;;;;5.03;100.00;98229.13;5009303;28;20272;-66
2020/12/27 08:42:26;;;;;;;0.75;0.57;;;;;;;4.98;100.00;98210.22;5006596;28;20288;-66
2020/12/27 08:44:58;;;;;;;0.93;0.70;;;;;;;5.01;100.00;98192.06;4986159;28;20108;-66
2020/12/27 08:47:44;;;;;;;0.70;0.53;;;;;;;4.93;100.00;98180.94;5005914;28;20285;-66
2020/12/27 08:50:14;;;;;;;1.80;0.70;;;;;;;4.93;100.00;98191.31;5005614;28;20379;-66
2020/12/27 08:52:40;;;;;;;4.27;0.90;;;;;;;4.96;100.00;98175.72;5003253;28;20281;-66
2020/12/27 08:55:12;;;;;;;1.37;0.70;;;;;;;4.96;100.00;98176.56;5006528;28;20277;-66
2020/12/27 08:57:38;;;;;;;0.85;0.63;;;;;;;5.02;100.00;98169.59;5007140;28;20319;-66
2020/12/27 09:00:07;;;;;;;0.60;0.60;;;;;;;5.02;100.00;98165.28;5007418;28;20513;-66
2020/12/27 09:02:34;;;;;;;1.87;0.73;;;;;;;4.94;100.00;98141.22;5006196;28;20037;-66
2020/12/27 09:05:11;;;;;;;0.90;0.70;;;;;;;4.95;100.00;98137.75;5008996;28;20767;-66
2020/12/27 09:07:41;;;;;;;0.87;0.60;;;;;;;4.94;100.00;98151.59;5003788;28;20285;-66
2020/12/27 09:10:10;;;;;;;1.20;0.70;;;;;;;4.95;100.00;98140.34;5012514;28;20287;-66
2020/12/27 09:12:37;;;;;;;1.53;0.80;;;;;;;4.95;100.00;98132.59;5009299;28;20311;-66
2020/12/27 09:15:26;;;;;;;1.60;1.20;;;;;;;4.96;100.00;98139.47;5012051;28;20280;-66
2020/12/27 09:17:56;;;;;;;1.23;0.63;;;;;;;4.93;100.00;98124.84;5009209;28;20281;-66
2020/12/27 09:20:23;;;;;;;1.10;0.67;;;;;;;4.91;100.00;98116.25;5010655;28;20342;-66
2020/12/27 09:22:49;;;;;;;1.33;0.70;;;;;;;4.88;100.00;98105.97;5012289;28;20281;-66
2020/12/27 09:25:18;;;;;;;1.50;0.70;;;;;;;4.91;100.00;98118.00;5011077;28;20276;-66
2020/12/27 09:27:43;;;;;;;1.37;0.70;;;;;;;4.94;100.00;98105.00;5010047;28;20290;-66
2020/12/27 09:30:12;;;;;;;1.23;0.70;;;;;;;4.92;100.00;98104.16;5011983;28;20851;-66
2020/12/27 09:32:38;;;;;;;2.00;0.60;;;;;;;4.93;100.00;98082.56;5007807;28;20030;-66
2020/12/27 09:35:03;;;;;;;1.37;0.70;;;;;;;4.95;100.00;98099.78;5010547;28;20288;-66
2020/12/27 09:37:33;;;;;;;1.10;0.70;;;;;;;4.97;100.00;98102.38;5013247;28;20092;-66
2020/12/27 09:40:00;;;;;;;1.00;0.60;;;;;;;5.00;100.00;98084.19;5009968;28;20034;-66
2020/12/27 09:42:28;;;;;;;1.17;0.80;;;;;;;5.03;100.00;98089.28;4993155;28;20695;-66
2020/12/27 09:44:56;;;;;;;1.17;0.60;;;;;;;4.98;100.00;98085.94;5010144;28;20301;-66
2020/12/27 09:47:29;;;;;;;1.07;0.60;;;;;;;4.96;100.00;98082.50;5010934;28;20296;-66
2020/12/27 09:50:05;;;;;;;1.00;0.70;;;;;;;4.97;100.00;98077.31;5011796;28;20963;-66
2020/12/27 09:52:31;;;;;;;1.10;0.60;;;;;;;5.04;100.00;98069.44;5009337;28;20760;-66
2020/12/27 09:54:56;;;;;;;1.63;0.90;;;;;;;4.95;100.00;98066.13;5011564;28;20339;-66
2020/12/27 09:57:24;;;;;;;1.63;0.70;;;;;;;4.94;100.00;98063.56;5010445;28;20493;-66
2020/12/27 09:59:51;;;;;;;1.43;0.70;;;;;;;4.93;100.00;98054.09;5006911;28;20034;-66
2020/12/27 10:02:19;;;;;;;1.23;0.80;;;;;;;4.92;100.00;98039.44;5009989;28;20354;-66
2020/12/27 10:04:44;;;;;;;0.97;0.70;;;;;;;4.93;100.00;98020.44;5008170;28;20281;-66
2020/12/27 10:07:10;;;;;;;1.90;0.90;;;;;;;4.90;100.00;98031.72;5009738;28;20940;-66
2020/12/27 10:09:36;;;;;;;1.03;0.50;;;;;;;4.92;100.00;98023.91;5003170;28;20034;-66
2020/12/27 10:12:03;;;;;;;1.30;0.60;;;;;;;4.92;100.00;98008.38;5007942;28;20479;-66
2020/12/27 10:14:29;;;;;;;0.80;0.50;;;;;;;4.94;100.00;98020.41;5008249;28;20639;-66
2020/12/27 10:16:59;;;;;;;1.17;0.70;;;;;;;4.94;100.00;98022.13;5003550;28;20284;-66
2020/12/27 10:19:25;;;;;;;2.00;0.80;;;;;;;4.92;100.00;97966.94;4995985;28;20289;-66
2020/12/27 10:21:50;;;;;;;2.03;0.90;;;;;;;4.95;100.00;98003.13;5009763;28;20292;-66
2020/12/27 10:24:16;;;;;;;1.43;0.70;;;;;;;4.92;100.00;97985.06;5010263;28;20037;-66
2020/12/27 10:26:46;;;;;;;0.90;0.60;;;;;;;4.93;100.00;97987.63;5011966;28;20036;-66
2020/12/27 10:29:12;;;;;;;2.00;0.63;;;;;;;4.92;100.00;97990.25;5011970;28;20026;-66
2020/12/27 10:31:37;;;;;;;1.47;0.73;;;;;;;4.86;100.00;97977.44;5008462;28;20867;-66
2020/12/27 10:34:02;;;;;;;1.00;0.70;;;;;;;4.89;100.00;97967.03;5010611;28;20022;-66
2020/12/27 10:36:28;;;;;;;2.23;0.90;;;;;;;4.89;100.00;97952.34;5009835;28;20021;-66
2020/12/27 10:38:53;;;;;;;1.73;0.80;;;;;;;4.87;100.00;97950.66;5008849;28;20022;-66
2020/12/27 10:41:19;;;;;;;1.27;0.70;;;;;;;4.82;100.00;97953.34;5002657;28;20097;-66
2020/12/27 10:43:49;;;;;;;1.30;0.60;;;;;;;4.80;100.00;97944.75;4992973;28;20116;-66
2020/12/27 10:46:15;;;;;;;2.67;0.80;;;;;;;4.77;100.00;97951.72;5009342;28;20125;-66
2020/12/27 10:48:40;;;;;;;1.67;0.73;;;;;;;4.77;100.00;97941.38;5009900;28;20778;-66
2020/12/27 10:51:06;;;;;;;2.87;1.03;;;;;;;4.70;100.00;97925.97;5011268;28;20364;-66
2020/12/27 10:53:31;;;;;;;1.13;0.60;;;;;;;4.76;100.00;97930.19;5009358;28;20032;-66
2020/12/27 10:55:56;;;;;;;1.67;0.70;;;;;;;4.75;100.00;97909.50;5008789;28;20026;-66
2020/12/27 10:58:22;;;;;;;1.10;0.60;;;;;;;4.72;100.00;97920.75;5008097;28;20100;-66
2020/12/27 11:00:47;;;;;;;0.60;0.50;;;;;;;4.80;100.00;97905.94;5010111;28;20034;-66
2020/12/27 11:03:13;;;;;;;2.00;0.60;;;;;;;4.76;100.00;97898.25;5008493;28;20026;-66
2020/12/27 11:05:39;;;;;;;1.07;0.53;;;;;;;4.75;100.00;97893.97;5005948;28;20029;-66
2020/12/27 11:08:05;;;;;;;1.57;0.90;;;;;;;4.69;100.00;97892.34;5009019;28;20272;-66
2020/12/27 11:10:31;;;;;;;2.03;0.93;;;;;;;4.73;100.00;97877.63;4994408;28;20731;-66
2020/12/27 11:12:57;;;;;;;1.90;0.90;;;;;;;4.56;100.00;97863.28;5006591;28;20802;-66
2020/12/27 11:15:22;;;;;;;1.70;0.90;;;;;;;4.48;100.00;97856.56;5011033;28;20036;-66
2020/12/27 11:17:48;;;;;;;2.50;0.80;;;;;;;4.47;100.00;97860.88;5004688;28;20551;-66
2020/12/27 11:20:13;;;;;;;3.80;0.90;;;;;;;4.41;100.00;97850.66;4994651;28;20117;-66
2020/12/27 11:22:43;;;;;;;2.33;0.90;;;;;;;4.35;100.00;97840.44;5007880;28;20061;-66
2020/12/27 11:25:09;;;;;;;2.07;1.10;;;;;;;4.29;100.00;97830.22;5007233;28;20120;-66
2020/12/27 11:27:35;;;;;;;2.93;1.23;;;;;;;4.27;100.00;97827.66;5002590;28;20470;-67
2020/12/27 11:30:01;;;;;;;4.13;2.17;;;;;;;4.23;100.00;97809.66;5006019;28;20836;-66
2020/12/27 11:32:27;;;;;;;6.33;2.73;;;;;;;4.23;100.00;97835.50;5005170;28;20390;-66
2020/12/27 11:34:53;;;;;;;2.40;1.10;;;;;;;4.18;100.00;97809.75;5005690;28;20045;-66
2020/12/27 11:37:18;;;;;;;2.50;1.20;;;;;;;4.09;100.00;97810.78;5006998;28;20293;-66